Time;durP1;ratioP1;P1;durP2;ratioP2;P2;SDS_P1;SDS_P2;PMS_P1;PMS_P2;Temp;Humidity;BMP_temperature;BMP_pressure;BME280_temperature;BME280_humidity;BME280_pressure;Samples;Min_cycle;Max_cycle;Signal;HPM_P1;HPM_P2
2023/03/26 00:01:53;;;;;;;7.30;2.38;;;;;;;9.93;82.00;99441.16;4850760;29;22249;-87
2023/03/26 00:04:33;;;;;;;10.93;1.73;;;;;;;10.00;81.50;99443.09;4894875;28;20086;-87
2023/03/26 00:07:01;;;;;;;10.15;1.83;;;;;;;10.05;80.70;99425.91;4907791;28;20060;-87
2023/03/26 00:09:32;;;;;;;13.82;2.05;;;;;;;10.04;80.63;99433.03;4882999;28;20074;-87
2023/03/26 00:12:37;;;;;;;12.20;2.83;;;;;;;9.98;81.63;99446.88;4904674;28;20053;-86
2023/03/26 00:15:49;;;;;;;11.18;1.85;;;;;;;9.97;81.08;99455.78;4861940;28;20054;-86
2023/03/26 00:18:21;;;;;;;10.10;2.20;;;;;;;9.83;83.54;99454.41;4909537;28;20047;-87
2023/03/26 00:20:53;;;;;;;9.60;1.42;;;;;;;9.87;83.96;99458.47;4943650;28;20043;-86
2023/03/26 00:23:37;;;;;;;6.82;1.52;;;;;;;9.74;85.76;99444.63;4927777;28;20051;-86
2023/03/26 00:26:52;;;;;;;6.97;1.67;;;;;;;9.70;85.02;99443.25;4855385;28;20049;-87
2023/03/26 00:30:00;;;;;;;5.32;1.42;;;;;;;9.81;85.21;99439.63;4824405;29;20615;-87
2023/03/26 00:32:53;;;;;;;14.00;2.85;;;;;;;9.74;85.54;99434.88;4791026;29;20877;-86
2023/03/26 00:35:55;;;;;;;7.15;2.15;;;;;;;9.73;85.96;99435.03;4848621;29;20051;-87
2023/03/26 00:38:56;;;;;;;13.57;4.25;;;;;;;9.77;85.51;99439.91;4841567;29;20429;-86
2023/03/26 00:42:05;;;;;;;10.13;1.80;;;;;;;9.68;86.48;99440.75;4777982;29;20054;-87
2023/03/26 00:44:56;;;;;;;6.40;1.40;;;;;;;9.74;85.92;99442.84;4723108;29;20563;-87
2023/03/26 00:47:32;;;;;;;10.43;2.75;;;;;;;9.71;86.87;99447.56;4726891;29;20479;-87
2023/03/26 00:50:16;;;;;;;10.45;1.50;;;;;;;9.70;86.50;99435.31;4720901;29;20050;-87
2023/03/26 00:52:46;;;;;;;7.03;1.60;;;;;;;9.73;86.08;99427.06;4790391;29;20043;-86
2023/03/26 00:55:18;;;;;;;5.88;1.40;;;;;;;9.74;86.03;99439.34;4750443;29;20043;-86
2023/03/26 01:00:49;;;;;;;7.38;1.95;;;;;;;9.57;86.07;99424.97;4989177;27;20687;-80
2023/03/26 01:03:17;;;;;;;6.80;1.75;;;;;;;9.60;85.57;99415.91;4950043;28;20988;-80
2023/03/26 01:06:01;;;;;;;5.55;1.40;;;;;;;9.47;85.73;99422.31;4998593;28;20140;-80
2023/03/26 01:08:46;;;;;;;7.90;1.10;;;;;;;9.34;86.24;99412.00;4958830;28;20042;-80
2023/03/26 01:11:20;;;;;;;11.98;1.45;;;;;;;9.38;86.31;99406.41;4995436;28;20387;-80
2023/03/26 01:13:50;;;;;;;7.78;2.03;;;;;;;9.33;85.32;99393.56;4980393;28;20084;-80
2023/03/26 01:16:25;;;;;;;4.00;1.45;;;;;;;9.31;84.83;99396.38;4974980;28;20054;-80
2023/03/26 01:18:52;;;;;;;8.02;1.95;;;;;;;9.34;85.08;99395.25;4984262;28;20057;-80
2023/03/26 01:21:22;;;;;;;7.72;1.15;;;;;;;9.33;84.87;99389.09;4982402;28;20055;-80
2023/03/26 01:23:58;;;;;;;4.70;1.10;;;;;;;9.21;85.24;99394.66;4995471;28;20057;-82
2023/03/26 01:26:47;;;;;;;8.27;1.25;;;;;;;9.16;85.53;99388.94;4998510;28;20046;-80
2023/03/26 01:29:41;;;;;;;3.30;1.10;;;;;;;9.18;85.11;99379.06;4979238;28;20054;-80
2023/03/26 01:32:38;;;;;;;6.55;1.45;;;;;;;9.07;85.57;99380.84;4977730;28;20042;-80
2023/03/26 01:35:13;;;;;;;8.05;2.05;;;;;;;9.09;84.98;99378.09;4958991;28;20127;-80
2023/03/26 01:38:09;;;;;;;9.15;1.60;;;;;;;9.13;84.54;99377.69;5011537;28;20050;-80
2023/03/26 01:40:41;;;;;;;5.28;1.08;;;;;;;9.16;84.30;99381.00;4957367;28;20099;-79
2023/03/26 01:43:38;;;;;;;7.32;1.80;;;;;;;8.97;85.10;99365.94;4989755;28;20046;-79
2023/03/26 01:46:07;;;;;;;4.97;1.33;;;;;;;9.06;85.19;99360.66;4963060;28;20053;-80
2023/03/26 01:48:36;;;;;;;7.20;1.75;;;;;;;9.03;84.69;99353.00;4975608;28;20133;-79
2023/03/26 01:51:04;;;;;;;2.03;1.20;;;;;;;9.01;84.83;99351.47;4983791;28;20061;-80
2023/03/26 01:53:34;;;;;;;8.50;1.83;;;;;;;8.94;84.96;99347.69;4967939;28;20049;-80
2023/03/26 01:56:38;;;;;;;9.45;2.25;;;;;;;8.78;85.15;99350.88;4979467;28;20038;-79
2023/03/26 01:59:20;;;;;;;4.57;1.65;;;;;;;8.78;85.66;99341.09;4953495;28;20054;-80
2023/03/26 02:01:56;;;;;;;6.73;1.33;;;;;;;8.79;85.66;99348.06;5014082;28;20053;-80
2023/03/26 02:04:24;;;;;;;3.53;1.00;;;;;;;8.86;84.98;99345.72;4977722;28;20461;-80
2023/03/26 02:06:57;;;;;;;6.55;1.17;;;;;;;8.80;85.21;99338.31;4977161;28;20137;-79
2023/03/26 02:09:28;;;;;;;4.80;1.20;;;;;;;8.77;85.35;99336.75;4961307;28;20054;-80
2023/03/26 02:11:56;;;;;;;10.27;1.67;;;;;;;8.82;85.30;99331.06;4982658;28;20046;-80
2023/03/26 02:14:23;;;;;;;5.13;1.25;;;;;;;8.83;85.38;99330.13;4964923;28;20070;-79
2023/03/26 02:16:50;;;;;;;7.72;1.27;;;;;;;8.81;85.98;99340.00;4970049;28;20046;-79
2023/03/26 02:19:20;;;;;;;3.67;1.23;;;;;;;8.81;85.71;99322.28;4957209;28;20054;-80
2023/03/26 02:21:50;;;;;;;6.57;1.40;;;;;;;8.83;85.94;99328.28;4934039;28;20058;-81
2023/03/26 02:24:18;;;;;;;10.20;1.45;;;;;;;8.81;86.28;99316.16;4958133;28;20513;-79
2023/03/26 02:26:46;;;;;;;10.55;1.45;;;;;;;8.81;86.34;99306.41;4969905;28;20053;-79
2023/03/26 02:29:13;;;;;;;5.07;1.35;;;;;;;8.81;86.74;99298.47;4968643;28;20544;-80
2023/03/26 02:31:43;;;;;;;5.68;1.40;;;;;;;8.79;86.63;99291.63;4969635;28;20442;-79
2023/03/26 02:34:10;;;;;;;10.50;2.28;;;;;;;8.78;86.54;99290.81;4969686;28;20050;-81
2023/03/26 02:36:41;;;;;;;4.20;1.60;;;;;;;8.79;86.73;99281.88;4969778;28;20054;-80
2023/03/26 02:39:09;;;;;;;5.72;1.10;;;;;;;8.80;86.54;99282.72;4967269;28;20054;-81
2023/03/26 02:41:37;;;;;;;8.38;1.63;;;;;;;8.81;86.27;99272.00;4985733;28;20042;-80
2023/03/26 02:44:08;;;;;;;4.18;1.15;;;;;;;8.83;86.03;99269.22;4965734;28;20034;-79
2023/03/26 02:46:54;;;;;;;4.55;1.38;;;;;;;8.75;86.29;99261.97;4966369;28;20050;-79
2023/03/26 02:49:40;;;;;;;10.50;1.52;;;;;;;8.71;86.14;99265.84;4924742;28;20050;-82
2023/03/26 02:52:07;;;;;;;4.05;1.25;;;;;;;8.66;86.09;99263.63;4970722;28;20050;-79
2023/03/26 02:54:34;;;;;;;3.50;1.00;;;;;;;8.66;85.97;99260.97;4956009;28;20375;-80
2023/03/26 02:57:19;;;;;;;4.32;1.30;;;;;;;8.60;86.16;99258.03;4924572;28;20046;-80
2023/03/26 03:00:09;;;;;;;7.05;1.60;;;;;;;8.60;85.60;99253.59;4934436;28;20620;-81
2023/03/26 03:02:37;;;;;;;3.65;1.23;;;;;;;8.56;85.73;99251.34;4950195;28;20042;-79
2023/03/26 03:05:41;;;;;;;2.70;1.73;;;;;;;8.54;85.76;99240.06;4971155;28;20038;-79
2023/03/26 03:08:12;;;;;;;4.05;1.30;;;;;;;8.55;85.56;99247.00;4972449;28;20128;-79
2023/03/26 03:11:11;;;;;;;3.03;1.00;;;;;;;8.53;85.03;99247.16;4933742;28;20081;-79
2023/03/26 03:13:47;;;;;;;5.30;1.42;;;;;;;8.54;85.08;99240.88;4913968;28;20065;-79
2023/03/26 03:16:34;;;;;;;6.13;1.55;;;;;;;8.52;84.99;99237.53;4955907;28;20468;-81
2023/03/26 03:19:04;;;;;;;4.18;1.60;;;;;;;8.52;85.00;99231.41;4977930;28;20046;-80
2023/03/26 03:21:38;;;;;;;9.35;1.60;;;;;;;8.51;84.20;99230.59;4966742;28;20092;-79
2023/03/26 03:24:06;;;;;;;7.97;1.58;;;;;;;8.48;84.50;99229.06;4964001;28;20455;-79
2023/03/26 03:26:37;;;;;;;7.95;1.77;;;;;;;8.46;84.96;99224.88;4956580;28;20050;-79
2023/03/26 03:29:32;;;;;;;3.92;1.42;;;;;;;8.38;85.13;99214.94;4945845;28;20050;-79
2023/03/26 03:32:34;;;;;;;6.35;1.55;;;;;;;8.36;85.52;99224.00;4905368;28;20433;-79
2023/03/26 03:35:04;;;;;;;3.70;1.35;;;;;;;8.32;85.84;99217.28;4983846;28;20134;-80
2023/03/26 03:37:31;;;;;;;7.70;1.42;;;;;;;8.35;86.15;99222.34;4952474;28;20081;-79
2023/03/26 03:39:59;;;;;;;4.65;1.88;;;;;;;8.35;86.00;99217.88;4958186;28;20081;-79
2023/03/26 03:42:29;;;;;;;7.10;2.00;;;;;;;8.40;86.38;99220.13;4964743;28;20564;-79
2023/03/26 03:45:00;;;;;;;14.10;1.55;;;;;;;8.42;85.67;99211.09;4954205;28;20054;-79
2023/03/26 03:47:55;;;;;;;5.72;1.60;;;;;;;8.35;85.87;99212.56;4923557;28;20532;-79
2023/03/26 03:50:30;;;;;;;10.85;2.75;;;;;;;8.34;85.61;99210.06;4939150;28;20053;-80
2023/03/26 03:53:27;;;;;;;5.22;1.70;;;;;;;8.28;85.67;99208.81;4948731;28;20505;-80
2023/03/26 03:55:58;;;;;;;5.72;1.38;;;;;;;8.35;85.97;99209.94;4921173;28;20078;-79
2023/03/26 03:58:44;;;;;;;5.40;1.65;;;;;;;8.35;86.07;99209.94;4953769;28;20069;-80
2023/03/26 04:01:15;;;;;;;8.20;1.58;;;;;;;8.28;86.10;99200.88;4982852;28;20060;-80
2023/03/26 04:04:05;;;;;;;4.70;1.70;;;;;;;8.30;86.42;99193.63;4966910;28;20038;-79
2023/03/26 04:06:47;;;;;;;4.63;1.30;;;;;;;8.29;86.46;99191.13;4982600;28;20057;-79
2023/03/26 04:09:15;;;;;;;7.43;2.28;;;;;;;8.32;86.66;99183.75;4958274;28;20129;-80
2023/03/26 04:11:45;;;;;;;5.35;1.33;;;;;;;8.38;86.44;99177.06;4974622;28;20052;-80
2023/03/26 04:14:29;;;;;;;6.40;1.85;;;;;;;8.37;86.33;99173.59;4945839;28;20565;-80
2023/03/26 04:17:04;;;;;;;12.73;3.88;;;;;;;8.46;86.27;99154.25;4949016;28;20042;-80
2023/03/26 04:19:33;;;;;;;12.20;2.40;;;;;;;8.45;86.79;99160.53;4980923;28;20506;-79
2023/03/26 04:22:04;;;;;;;4.45;1.55;;;;;;;8.46;86.88;99164.84;4950405;28;20050;-80
2023/03/26 04:24:41;;;;;;;4.53;1.40;;;;;;;8.42;87.31;99155.53;4938243;28;20052;-79
2023/03/26 04:27:30;;;;;;;6.47;2.28;;;;;;;8.44;87.22;99152.72;4913531;28;20462;-79
2023/03/26 04:30:14;;;;;;;6.75;1.65;;;;;;;8.49;86.02;99139.91;4937894;28;20136;-79
2023/03/26 04:32:47;;;;;;;9.88;3.13;;;;;;;8.47;85.67;99142.72;4970896;28;20093;-79
2023/03/26 04:35:15;;;;;;;4.40;1.67;;;;;;;8.42;85.79;99134.38;4983776;28;20053;-79
2023/03/26 04:37:47;;;;;;;4.40;1.70;;;;;;;8.42;86.09;99126.44;4951303;28;20050;-79
2023/03/26 04:40:20;;;;;;;7.10;1.50;;;;;;;8.42;86.55;99128.22;4950762;28;20444;-79
2023/03/26 04:43:12;;;;;;;5.50;1.70;;;;;;;8.45;86.40;99127.97;4961297;28;20051;-80
2023/03/26 04:45:57;;;;;;;4.13;1.50;;;;;;;8.40;87.14;99116.97;4944921;28;20498;-80
2023/03/26 04:48:26;;;;;;;5.15;1.92;;;;;;;8.41;86.96;99100.94;4921853;28;20101;-80
2023/03/26 04:50:53;;;;;;;2.53;1.52;;;;;;;8.44;87.14;99086.59;4958784;28;20100;-80
2023/03/26 04:53:21;;;;;;;6.38;2.15;;;;;;;8.44;86.99;99082.13;4955278;28;20061;-79
2023/03/26 04:56:20;;;;;;;6.55;2.30;;;;;;;8.28;87.59;99073.91;4953924;28;20054;-81
2023/03/26 04:59:04;;;;;;;7.72;2.33;;;;;;;8.40;87.07;99062.25;4934001;28;20046;-79
2023/03/26 05:01:36;;;;;;;8.23;2.22;;;;;;;8.40;87.23;99058.75;4994044;28;20046;-81
2023/03/26 05:04:04;;;;;;;7.13;2.10;;;;;;;8.40;87.48;99064.06;4983152;28;20386;-79
2023/03/26 05:06:33;;;;;;;5.07;2.63;;;;;;;8.36;87.73;99058.16;4967947;28;20093;-80
2023/03/26 05:09:04;;;;;;;;;;;;;;;8.10;88.64;99054.44;4963888;28;20050;-80
2023/03/26 05:11:53;;;;;;;8.18;2.78;;;;;;;8.23;88.19;99047.03;4957256;28;19929;-80
2023/03/26 05:14:20;;;;;;;3.83;2.08;;;;;;;8.27;87.57;99043.16;4963695;28;20047;-79
2023/03/26 05:16:49;;;;;;;10.98;2.28;;;;;;;8.37;87.20;99048.41;4952174;28;20038;-79
2023/03/26 05:19:16;;;;;;;7.47;2.10;;;;;;;8.32;87.38;99046.22;4947057;28;20042;-80
2023/03/26 05:21:42;;;;;;;9.27;2.30;;;;;;;8.31;87.69;99047.16;4949269;28;20074;-80
2023/03/26 05:24:10;;;;;;;5.43;2.03;;;;;;;8.33;87.83;99037.28;4946271;28;20409;-80
2023/03/26 05:26:37;;;;;;;3.70;2.13;;;;;;;8.30;88.18;99034.09;4952643;28;20126;-79
2023/03/26 05:29:04;;;;;;;4.15;1.98;;;;;;;8.25;88.79;99016.00;4951589;28;20405;-80
2023/03/26 05:31:35;;;;;;;6.93;1.73;;;;;;;8.33;87.97;99017.94;4961118;28;20097;-80
2023/03/26 05:34:02;;;;;;;5.63;2.17;;;;;;;8.31;88.27;99014.59;4971265;28;20046;-80
2023/03/26 05:36:29;;;;;;;6.18;1.90;;;;;;;8.36;87.54;99009.72;4992491;28;20125;-79
2023/03/26 05:39:15;;;;;;;5.78;2.28;;;;;;;8.39;87.37;99015.56;4938681;28;20066;-79
2023/03/26 05:42:11;;;;;;;8.95;2.20;;;;;;;8.36;88.37;99017.66;4895413;28;20050;-79
2023/03/26 05:45:06;;;;;;;6.15;1.73;;;;;;;8.36;88.28;99023.78;4935927;28;20050;-80
2023/03/26 05:47:34;;;;;;;6.28;2.25;;;;;;;8.37;88.34;99017.53;4952781;28;20394;-80
2023/03/26 05:50:01;;;;;;;6.63;2.70;;;;;;;8.35;88.69;99011.53;4983658;28;20047;-80
2023/03/26 05:52:28;;;;;;;7.75;2.15;;;;;;;8.40;88.43;99008.50;4969069;28;20101;-80
2023/03/26 05:55:27;;;;;;;5.85;2.00;;;;;;;8.36;88.77;99004.44;4913447;28;20050;-80
2023/03/26 05:58:16;;;;;;;4.15;2.15;;;;;;;8.40;88.38;99004.03;4925012;28;20049;-80
2023/03/26 06:01:15;;;;;;;10.02;2.30;;;;;;;8.34;88.34;98998.44;4955513;28;20050;-80
2023/03/26 06:04:05;;;;;;;9.75;2.22;;;;;;;8.36;88.52;98996.50;4909514;28;20499;-80
2023/03/26 06:06:38;;;;;;;4.03;1.67;;;;;;;8.34;89.33;98985.22;4963913;28;20458;-80
2023/03/26 06:09:05;;;;;;;8.77;2.17;;;;;;;8.39;88.84;98975.03;4950206;28;20046;-79
2023/03/26 06:11:32;;;;;;;3.45;2.03;;;;;;;8.38;89.25;98962.81;4958760;28;20065;-79
2023/03/26 06:14:01;;;;;;;8.73;2.05;;;;;;;8.39;89.16;98969.75;4950652;28;20042;-79
2023/03/26 06:16:28;;;;;;;4.78;2.10;;;;;;;8.39;89.35;98960.03;4952537;28;20077;-80
2023/03/26 06:19:05;;;;;;;7.18;2.88;;;;;;;8.39;89.39;98959.16;4976333;28;20101;-79
2023/03/26 06:21:46;;;;;;;7.57;2.50;;;;;;;8.40;89.23;98947.66;4938380;28;20129;-80
2023/03/26 06:24:26;;;;;;;6.57;2.30;;;;;;;8.42;89.68;98940.38;4938787;28;20051;-79
2023/03/26 06:27:09;;;;;;;4.65;2.22;;;;;;;8.39;90.15;98933.56;4968318;28;20514;-80
2023/03/26 06:29:51;;;;;;;7.43;2.25;;;;;;;8.44;89.64;98933.16;4951910;28;20038;-80
2023/03/26 06:32:39;;;;;;;8.57;2.83;;;;;;;8.48;89.56;98932.72;4951077;28;20142;-80
2023/03/26 06:35:12;;;;;;;7.13;3.03;;;;;;;8.50;89.33;98929.09;4956082;28;20375;-79
2023/03/26 06:37:39;;;;;;;5.53;2.28;;;;;;;8.48;89.20;98931.88;4954394;28;20123;-79
2023/03/26 06:40:06;;;;;;;8.40;3.55;;;;;;;8.48;89.24;98919.50;4969012;28;20050;-79
2023/03/26 06:43:05;;;;;;;6.03;2.50;;;;;;;8.44;89.24;98911.97;4959476;28;20084;-79
2023/03/26 06:45:51;;;;;;;6.30;2.50;;;;;;;8.39;89.86;98911.53;4934898;28;20070;-79
2023/03/26 06:48:41;;;;;;;5.55;2.28;;;;;;;8.45;89.23;98914.50;4894245;28;20050;-80
2023/03/26 06:51:26;;;;;;;7.72;2.25;;;;;;;8.44;88.76;98909.34;4950137;28;20042;-79
2023/03/26 06:54:17;;;;;;;4.20;2.10;;;;;;;8.42;89.86;98898.06;4952162;28;20057;-79
2023/03/26 06:56:53;;;;;;;5.75;2.33;;;;;;;8.46;89.61;98884.41;4950757;28;20128;-79
2023/03/26 06:59:39;;;;;;;4.60;2.17;;;;;;;8.47;89.30;98872.84;4985132;28;20050;-79
2023/03/26 07:02:24;;;;;;;5.75;2.45;;;;;;;8.45;89.83;98869.53;4939036;28;20097;-79
2023/03/26 07:05:09;;;;;;;8.60;2.80;;;;;;;8.46;90.22;98873.81;4967619;28;20049;-79
2023/03/26 07:07:55;;;;;;;5.82;2.60;;;;;;;8.49;90.20;98864.75;4923192;28;20043;-80
2023/03/26 07:11:00;;;;;;;8.13;2.58;;;;;;;8.49;89.92;98859.47;4940640;28;20542;-79
2023/03/26 07:13:55;;;;;;;6.32;2.20;;;;;;;8.47;89.85;98846.41;4936976;28;20110;-79
2023/03/26 07:16:40;;;;;;;8.10;2.33;;;;;;;8.47;90.34;98856.13;4918445;28;20458;-78
2023/03/26 07:19:17;;;;;;;8.18;2.45;;;;;;;8.43;90.11;98854.78;4966031;28;20046;-81
2023/03/26 07:21:45;;;;;;;10.00;3.08;;;;;;;8.45;89.75;98852.81;4968628;28;20053;-81
2023/03/26 07:24:38;;;;;;;6.57;2.38;;;;;;;8.44;90.51;98844.03;4907817;28;20133;-81
2023/03/26 07:27:20;;;;;;;6.43;2.63;;;;;;;8.45;90.91;98836.94;4956587;28;20043;-82
2023/03/26 07:30:20;;;;;;;3.40;2.20;;;;;;;8.43;91.30;98844.19;4975153;28;20093;-81
2023/03/26 07:33:28;;;;;;;7.50;2.55;;;;;;;8.40;91.43;98832.09;4931860;28;20047;-81
2023/03/26 07:36:25;;;;;;;6.57;2.50;;;;;;;8.40;91.32;98829.44;4938687;28;20043;-81
2023/03/26 07:39:31;;;;;;;5.40;2.33;;;;;;;8.44;92.05;98820.22;4927328;28;20043;-81
2023/03/26 07:42:57;;;;;;;7.88;3.20;;;;;;;8.50;92.17;98812.66;4909562;28;20490;-81
2023/03/26 07:45:43;;;;;;;7.97;3.42;;;;;;;8.57;91.47;98814.56;4940215;28;20162;-82
2023/03/26 07:48:24;;;;;;;10.68;3.97;;;;;;;8.57;91.54;98814.56;4952905;28;20057;-80
2023/03/26 07:51:15;;;;;;;8.82;3.47;;;;;;;8.56;91.92;98815.56;4929695;28;20122;-80
2023/03/26 07:54:03;;;;;;;8.88;4.03;;;;;;;8.58;92.59;98810.13;4940909;28;20134;-82
2023/03/26 07:57:05;;;;;;;10.40;3.47;;;;;;;8.62;92.52;98811.50;4936990;28;20047;-80
2023/03/26 07:59:52;;;;;;;7.45;3.05;;;;;;;8.58;92.68;98802.19;4956377;28;20046;-81
2023/03/26 08:03:08;;;;;;;7.90;3.40;;;;;;;8.65;92.50;98797.94;4951014;28;20049;-81
2023/03/26 08:06:08;;;;;;;7.88;3.20;;;;;;;8.65;93.76;98800.59;4937302;28;20038;-81
2023/03/26 08:09:05;;;;;;;6.10;3.53;;;;;;;8.67;93.83;98801.28;4922556;28;20489;-81
2023/03/26 08:12:02;;;;;;;9.45;3.17;;;;;;;8.72;93.07;98800.84;4921860;28;20372;-81
2023/03/26 08:14:57;;;;;;;4.72;2.28;;;;;;;8.77;92.34;98788.81;4981733;28;20054;-81
2023/03/26 08:17:28;;;;;;;6.03;2.88;;;;;;;8.76;93.09;98792.47;4929184;28;20536;-81
2023/03/26 08:20:12;;;;;;;5.78;2.50;;;;;;;8.76;94.17;98789.00;4967676;28;20513;-81
2023/03/26 08:22:44;;;;;;;8.05;3.30;;;;;;;8.77;94.62;98796.75;4974016;28;20106;-81
2023/03/26 08:25:33;;;;;;;5.65;2.65;;;;;;;8.77;95.36;98802.06;4975520;28;20045;-81
2023/03/26 08:28:10;;;;;;;11.32;3.92;;;;;;;8.85;94.44;98802.16;4956541;28;20402;-81
2023/03/26 08:30:37;;;;;;;11.90;3.95;;;;;;;8.92;93.58;98810.31;4988464;28;20051;-81
2023/03/26 08:33:10;;;;;;;8.88;3.65;;;;;;;9.03;92.49;98804.81;4961670;28;20145;-81
2023/03/26 08:35:41;;;;;;;9.57;2.40;;;;;;;9.07;91.78;98790.28;4984750;28;20046;-81
2023/03/26 08:38:09;;;;;;;6.55;2.30;;;;;;;9.13;90.31;98783.53;4983802;28;20046;-81
2023/03/26 08:40:57;;;;;;;11.32;2.90;;;;;;;9.11;88.88;98780.22;4965605;28;20043;-81
2023/03/26 08:43:45;;;;;;;9.25;2.60;;;;;;;9.10;88.41;98774.06;4963146;28;20063;-81
2023/03/26 08:46:15;;;;;;;7.15;2.95;;;;;;;9.19;88.66;98771.53;4963511;28;20489;-81
2023/03/26 08:49:30;;;;;;;9.18;2.90;;;;;;;9.15;88.81;98775.44;4984512;28;20112;-82
2023/03/26 08:52:15;;;;;;;8.75;3.50;;;;;;;9.23;89.13;98765.75;4921435;28;20058;-81
2023/03/26 08:55:11;;;;;;;16.73;9.60;;;;;;;9.24;89.94;98770.06;4992687;28;20045;-81
2023/03/26 08:58:10;;;;;;;12.30;4.45;;;;;;;9.19;90.21;98760.94;4936415;28;20521;-81
2023/03/26 09:09:32;;;;;;;5.00;1.42;;;;;;;9.19;92.96;98782.13;4955763;28;20038;-81
2023/03/26 09:12:45;;;;;;;15.35;5.00;;;;;;;9.21;92.17;98774.81;4945281;28;20047;-81
2023/03/26 09:15:36;;;;;;;17.83;10.80;;;;;;;9.23;91.73;98772.88;4913339;28;20820;-82
2023/03/26 09:18:25;;;;;;;14.73;8.32;;;;;;;9.27;90.95;98772.41;4965104;28;20038;-81
2023/03/26 09:21:10;;;;;;;14.68;5.88;;;;;;;9.29;90.73;98766.97;4918344;28;20050;-81
2023/03/26 09:24:08;;;;;;;12.00;6.05;;;;;;;9.39;90.41;98765.06;4998489;28;20458;-82
2023/03/26 09:26:45;;;;;;;6.03;3.38;;;;;;;9.45;90.38;98745.06;4931538;28;20046;-81
2023/03/26 09:29:37;;;;;;;11.13;2.38;;;;;;;9.48;90.38;98740.25;4985480;28;20070;-81
2023/03/26 09:32:16;;;;;;;8.52;2.50;;;;;;;9.57;90.27;98738.50;4960239;28;20130;-81
2023/03/26 09:34:51;;;;;;;8.45;2.22;;;;;;;9.64;89.45;98738.69;5001247;28;20043;-81
2023/03/26 09:37:27;;;;;;;5.65;2.33;;;;;;;9.66;89.28;98740.22;4971625;28;20538;-81
2023/03/26 09:40:14;;;;;;;15.82;5.30;;;;;;;9.60;89.06;98735.53;4950710;28;20046;-82
2023/03/26 09:42:44;;;;;;;11.60;3.67;;;;;;;9.65;88.58;98727.13;4946701;28;20167;-83
2023/03/26 09:45:29;;;;;;;10.98;4.55;;;;;;;9.59;88.98;98728.56;4953318;28;20112;-83
2023/03/26 09:48:18;;;;;;;5.68;2.55;;;;;;;9.61;88.71;98731.88;4963557;28;20049;-83
2023/03/26 09:51:12;;;;;;;15.50;8.43;;;;;;;9.59;89.07;98738.34;4989330;28;20113;-82
2023/03/26 09:54:10;;;;;;;25.27;12.75;;;;;;;9.59;89.09;98728.56;4971745;28;20080;-83
2023/03/26 09:56:52;;;;;;;19.33;10.45;;;;;;;9.59;89.05;98717.97;4938235;28;20042;-83
2023/03/26 09:59:50;;;;;;;20.48;10.82;;;;;;;9.58;89.61;98724.25;4952104;28;20050;-83
2023/03/26 10:02:17;;;;;;;26.27;15.52;;;;;;;9.65;89.42;98713.88;4935048;28;20048;-81
2023/03/26 10:05:08;;;;;;;28.70;13.73;;;;;;;9.62;89.46;98708.91;4989584;28;20549;-81
2023/03/26 10:08:11;;;;;;;10.57;3.45;;;;;;;9.59;89.29;98723.25;4927132;28;20066;-82
2023/03/26 10:10:53;;;;;;;9.40;3.28;;;;;;;9.59;89.73;98720.63;4892701;28;20046;-82
2023/03/26 10:13:39;;;;;;;7.13;2.35;;;;;;;9.59;89.24;98728.56;5007102;28;20043;-82
2023/03/26 10:16:18;;;;;;;11.77;3.28;;;;;;;9.66;88.87;98728.78;4978884;28;20096;-82
2023/03/26 10:18:58;;;;;;;9.88;2.65;;;;;;;9.65;89.38;98722.66;4954376;28;20494;-82
2023/03/26 10:21:38;;;;;;;8.23;3.10;;;;;;;9.69;90.18;98721.38;4979600;28;20050;-82
2023/03/26 10:24:23;;;;;;;7.43;3.22;;;;;;;9.75;89.51;98730.50;4967663;28;20042;-82
2023/03/26 10:27:01;;;;;;;7.93;3.70;;;;;;;9.73;90.20;98729.81;4975894;28;20038;-82
2023/03/26 10:29:57;;;;;;;12.50;3.25;;;;;;;9.76;90.12;98725.03;5000711;28;20387;-82
2023/03/26 10:32:42;;;;;;;16.70;8.38;;;;;;;9.81;90.13;98719.25;4963409;28;20054;-82
2023/03/26 10:35:22;;;;;;;15.85;5.85;;;;;;;9.88;90.41;98722.13;4962506;28;20505;-82
2023/03/26 10:38:01;;;;;;;6.32;3.28;;;;;;;9.93;90.25;98718.00;4961056;28;20047;-82
2023/03/26 10:40:47;;;;;;;11.18;3.22;;;;;;;10.00;90.92;98702.28;4980948;28;20516;-81
2023/03/26 10:43:20;;;;;;;9.45;2.90;;;;;;;10.11;90.35;98712.59;4950387;28;20138;-81
2023/03/26 10:46:13;;;;;;;7.05;2.92;;;;;;;10.11;89.94;98703.81;4950043;28;20050;-81
2023/03/26 10:49:02;;;;;;;4.75;2.97;;;;;;;10.17;90.16;98703.97;4918945;28;20137;-82
2023/03/26 10:51:49;;;;;;;5.57;2.90;;;;;;;10.22;90.85;98695.53;5009465;28;20120;-82
2023/03/26 10:54:26;;;;;;;6.22;2.42;;;;;;;10.29;91.08;98687.81;4956999;28;20042;-82
2023/03/26 10:56:54;;;;;;;14.10;2.60;;;;;;;10.38;90.38;98679.72;4980870;28;20042;-82
2023/03/26 10:59:24;;;;;;;6.57;2.13;;;;;;;10.46;90.16;98684.19;4966266;28;20054;-82
2023/03/26 11:02:14;;;;;;;11.68;2.85;;;;;;;10.43;92.15;98682.72;4983179;28;20050;-82
2023/03/26 11:04:53;;;;;;;10.98;2.63;;;;;;;10.56;89.74;98668.13;4978484;28;20073;-82
2023/03/26 11:07:38;;;;;;;8.73;2.15;;;;;;;10.52;92.06;98661.47;4975035;28;20097;-83
2023/03/26 11:10:09;;;;;;;8.50;2.20;;;;;;;10.61;90.53;98655.19;4963995;28;20134;-82
2023/03/26 11:12:44;;;;;;;10.05;2.53;;;;;;;10.65;90.26;98643.22;4987011;28;20101;-83
2023/03/26 11:15:27;;;;;;;8.70;2.63;;;;;;;10.70;89.92;98643.56;4967722;28;20050;-83
2023/03/26 11:17:54;;;;;;;;;;;;;;;10.58;90.36;98642.22;4922001;28;20054;-83
2023/03/26 11:20:45;;;;;;;11.10;3.00;;;;;;;10.68;88.46;98644.72;4989285;28;20013;-83
2023/03/26 11:23:34;;;;;;;8.45;3.05;;;;;;;10.72;90.81;98630.13;4962565;28;20046;-83
2023/03/26 11:26:09;;;;;;;6.28;2.33;;;;;;;10.81;88.73;98619.34;4946911;28;20126;-83
2023/03/26 11:28:42;;;;;;;10.52;3.85;;;;;;;10.80;88.62;98625.63;4903567;28;20048;-83
2023/03/26 11:31:32;;;;;;;7.28;3.00;;;;;;;10.72;88.00;98616.88;4949867;28;20042;-83
2023/03/26 11:34:04;;;;;;;5.85;2.65;;;;;;;10.68;87.89;98623.50;4979982;28;20047;-82
2023/03/26 11:36:35;;;;;;;9.27;2.13;;;;;;;10.58;87.71;98636.91;4967981;28;20046;-82
2023/03/26 11:39:07;;;;;;;6.40;2.38;;;;;;;10.51;88.59;98647.38;4980191;28;20039;-82
2023/03/26 11:41:34;;;;;;;8.70;2.20;;;;;;;10.49;88.59;98643.22;4965050;28;20046;-81
2023/03/26 11:44:25;;;;;;;10.63;3.45;;;;;;;10.43;89.07;98655.31;4962936;28;20043;-81
2023/03/26 11:47:00;;;;;;;7.63;2.63;;;;;;;10.37;89.76;98659.47;4993834;28;20501;-81
2023/03/26 11:49:28;;;;;;;8.57;2.95;;;;;;;10.36;89.00;98649.84;4969419;28;20042;-81
2023/03/26 11:51:55;;;;;;;11.70;2.65;;;;;;;10.32;89.18;98642.38;5002018;28;20117;-81
2023/03/26 11:54:22;;;;;;;8.93;2.75;;;;;;;10.32;89.59;98648.50;4983814;28;20061;-82
2023/03/26 11:56:53;;;;;;;9.20;2.30;;;;;;;10.32;89.79;98645.03;4999399;28;20054;-82
2023/03/26 11:59:42;;;;;;;;;;;;;;;10.18;92.33;98655.25;4933661;28;20069;-82
2023/03/26 12:02:24;;;;;;;7.50;1.90;;;;;;;10.32;90.56;98645.03;4948818;28;19929;-82
2023/03/26 12:04:54;;;;;;;9.05;2.47;;;;;;;10.37;90.53;98646.19;4966190;28;20048;-82
2023/03/26 12:07:32;;;;;;;6.88;4.13;;;;;;;10.37;90.96;98640.06;4974492;28;20050;-82
2023/03/26 12:10:04;;;;;;;6.93;2.83;;;;;;;10.45;91.00;98618.00;4959447;28;20043;-82
2023/03/26 12:12:46;;;;;;;8.70;2.67;;;;;;;10.56;91.63;98620.34;4933621;28;20380;-82
2023/03/26 12:15:19;;;;;;;11.32;2.80;;;;;;;10.65;91.54;98600.75;4945522;28;20046;-82
2023/03/26 12:17:54;;;;;;;11.55;2.55;;;;;;;10.74;91.35;98604.25;4967200;28;20049;-82
2023/03/26 12:20:21;;;;;;;13.40;4.00;;;;;;;10.79;91.44;98594.78;4933114;28;20055;-82
2023/03/26 12:22:50;;;;;;;9.52;3.22;;;;;;;10.83;91.13;98590.78;4924304;28;20047;-82
2023/03/26 12:25:22;;;;;;;7.22;2.13;;;;;;;10.91;91.02;98597.91;4893932;28;20055;-82
2023/03/26 12:27:49;;;;;;;6.28;1.88;;;;;;;11.03;90.29;98591.25;4920594;28;20050;-82
2023/03/26 12:30:19;;;;;;;7.00;1.98;;;;;;;11.05;90.20;98594.56;4904017;28;20477;-82
2023/03/26 12:32:47;;;;;;;3.33;1.08;;;;;;;11.10;87.65;98586.09;4922720;28;20393;-82
2023/03/26 12:35:25;;;;;;;3.08;0.80;;;;;;;11.13;84.71;98590.25;4920978;28;20557;-82
2023/03/26 12:37:53;;;;;;;5.97;1.40;;;;;;;11.18;84.74;98583.41;4906865;28;20107;-82
2023/03/26 12:40:32;;;;;;;2.47;1.05;;;;;;;11.18;84.82;98587.91;4922468;28;20051;-82
2023/03/26 12:43:01;;;;;;;5.15;1.23;;;;;;;11.21;85.12;98588.38;4891917;28;20101;-83
2023/03/26 12:45:53;;;;;;;2.15;0.88;;;;;;;11.22;83.08;98579.44;4924804;28;20049;-82
2023/03/26 12:48:40;;;;;;;3.30;1.13;;;;;;;11.27;82.94;98578.91;4926385;28;20047;-83
2023/03/26 12:51:15;;;;;;;1.67;0.80;;;;;;;11.26;77.48;98556.81;4931534;28;20063;-83
2023/03/26 12:54:07;;;;;;;4.70;1.85;;;;;;;11.22;75.15;98557.31;4946056;28;20418;-83